Time;durP1;ratioP1;P1;durP2;ratioP2;P2;SDS_P1;SDS_P2;PMS_P1;PMS_P2;Temp;Humidity;BMP_temperature;BMP_pressure;BME280_temperature;BME280_humidity;BME280_pressure;Samples;Min_cycle;Max_cycle;Signal;HPM_P1;HPM_P2
2023/10/03 00:00:31;;;;;;;;;;;;;;;23.72;nan;101578.66;5066295;28;19940;-89
2023/10/03 00:02:57;;;;;;;;;;;;;;;23.68;nan;101582.31;5064910;28;19963;-89
2023/10/03 00:05:23;;;;;;;;;;;;;;;23.65;nan;101586.50;5065527;28;19917;-89
2023/10/03 00:07:49;;;;;;;;;;;;;;;23.63;nan;101594.22;5066911;28;20339;-88
2023/10/03 00:10:15;;;;;;;;;;;;;;;23.60;nan;101586.66;5068786;28;19955;-89
2023/10/03 00:12:40;;;;;;;;;;;;;;;23.57;nan;101589.22;5067691;28;19944;-89
2023/10/03 00:15:08;;;;;;;;;;;;;;;23.57;nan;101581.00;5064052;28;20013;-89
2023/10/03 00:17:34;;;;;;;;;;;;;;;23.59;nan;101582.31;5069164;28;19923;-88
2023/10/03 00:20:00;;;;;;;;;;;;;;;23.61;nan;101571.06;5065648;28;19943;-89
2023/10/03 00:22:25;;;;;;;;;;;;;;;23.59;nan;101565.91;5064891;28;20285;-89
2023/10/03 00:24:51;;;;;;;;;;;;;;;23.55;nan;101562.16;5066575;28;19916;-89
2023/10/03 00:27:16;;;;;;;;;;;;;;;23.51;nan;101551.00;5069720;28;19947;-89
2023/10/03 00:29:42;;;;;;;;;;;;;;;23.49;nan;101555.19;5064698;28;20195;-88
2023/10/03 00:32:08;;;;;;;;;;;;;;;23.47;nan;101552.78;5061814;28;19921;-89
2023/10/03 00:34:36;;;;;;;;;;;;;;;23.45;nan;101546.81;5065523;28;20003;-89
2023/10/03 00:37:02;;;;;;;;;;;;;;;23.41;nan;101548.56;5060327;28;20598;-89
2023/10/03 00:39:27;;;;;;;;;;;;;;;23.35;nan;101547.13;5066233;28;19924;-89
2023/10/03 00:41:53;;;;;;;;;;;;;;;23.30;nan;101546.41;5083778;28;19963;-89
2023/10/03 00:44:19;;;;;;;;;;;;;;;23.25;nan;101538.38;5060834;28;19928;-89
2023/10/03 00:46:45;;;;;;;;;;;;;;;23.22;nan;101534.34;5065456;28;19924;-89
2023/10/03 00:49:10;;;;;;;;;;;;;;;23.23;nan;101535.94;5061004;28;19935;-90
2023/10/03 00:51:36;;;;;;;;;;;;;;;23.23;nan;101535.13;5064241;28;19927;-90
2023/10/03 00:54:02;;;;;;;;;;;;;;;23.20;nan;101534.66;5067284;28;19962;-89
2023/10/03 00:56:28;;;;;;;;;;;;;;;23.17;nan;101529.81;5069207;28;19924;-89
2023/10/03 00:58:53;;;;;;;;;;;;;;;23.13;nan;101531.53;5065938;28;19923;-89
2023/10/03 01:01:18;;;;;;;;;;;;;;;23.07;nan;101526.53;5067699;28;19927;-89
2023/10/03 01:03:47;;;;;;;;;;;;;;;23.02;nan;101516.53;5063658;28;19928;-89
2023/10/03 01:06:12;;;;;;;;;;;;;;;22.98;nan;101512.84;5065334;28;19932;-89
2023/10/03 01:08:39;;;;;;;;;;;;;;;22.94;nan;101517.28;5065310;28;19928;-90
2023/10/03 01:11:24;;;;;;;;;;;;;;;22.94;nan;101517.28;5067462;28;19924;-89
2023/10/03 01:13:54;;;;;;;;;;;;;;;22.91;nan;101507.00;5064176;28;20377;-89
2023/10/03 01:16:33;;;;;;;;;;;;;;;22.90;nan;101513.56;5068499;28;20003;-89
2023/10/03 01:18:59;;;;;;;;;;;;;;;22.88;nan;101502.16;5062273;28;19970;-89
2023/10/03 01:21:26;;;;;;;;;;;;;;;22.88;nan;101496.69;5068709;28;19931;-89
2023/10/03 01:23:53;;;;;;;;;;;;;;;22.88;nan;101492.03;5067705;28;19916;-89
2023/10/03 01:26:20;;;;;;;;;;;;;;;22.88;nan;101488.50;5069113;28;19931;-89
2023/10/03 01:28:45;;;;;;;;;;;;;;;22.85;nan;101478.19;5064316;28;20436;-89
2023/10/03 01:31:11;;;;;;;;;;;;;;;22.80;nan;101470.91;5063629;28;19925;-89
2023/10/03 01:33:36;;;;;;;;;;;;;;;22.76;nan;101467.16;5064919;28;19931;-90
2023/10/03 01:36:03;;;;;;;;;;;;;;;22.71;nan;101459.09;5067199;28;19931;-90
2023/10/03 01:38:28;;;;;;;;;;;;;;;22.69;nan;101452.34;5059936;28;19920;-89
2023/10/03 01:40:54;;;;;;;;;;;;;;;22.72;nan;101455.25;5062955;28;19967;-88
2023/10/03 01:43:20;;;;;;;;;;;;;;;22.75;nan;101462.03;5064101;28;19931;-90
2023/10/03 01:45:45;;;;;;;;;;;;;;;22.79;nan;101447.41;5064543;28;19947;-90
2023/10/03 01:48:12;;;;;;;;;;;;;;;22.81;nan;101452.59;5060778;28;19924;-89
2023/10/03 01:50:38;;;;;;;;;;;;;;;22.81;nan;101447.94;5061401;28;19974;-89
2023/10/03 01:53:04;;;;;;;;;;;;;;;22.84;nan;101449.25;5064974;28;19920;-90
2023/10/03 01:55:29;;;;;;;;;;;;;;;22.85;nan;101442.69;5067209;28;19965;-89
2023/10/03 01:57:54;;;;;;;;;;;;;;;22.89;nan;101435.44;5066306;28;19935;-90
2023/10/03 02:00:26;;;;;;;;;;;;;;;22.89;nan;101440.91;5067663;28;19925;-90
2023/10/03 02:03:01;;;;;;;;;;;;;;;22.89;nan;101433.53;5069912;28;20014;-90
2023/10/03 02:05:27;;;;;;;;;;;;;;;22.88;nan;101428.38;5063447;28;20014;-90
2023/10/03 02:07:55;;;;;;;;;;;;;;;22.85;nan;101423.56;5063900;28;20379;-90
2023/10/03 02:10:20;;;;;;;;;;;;;;;22.81;nan;101411.63;5069370;28;19924;-89
2023/10/03 02:12:49;;;;;;;;;;;;;;;22.76;nan;101407.06;5068403;28;19927;-90
2023/10/03 02:15:22;;;;;;;;;;;;;;;22.75;nan;101412.84;5085778;28;20026;-89
2023/10/03 02:17:54;;;;;;;;;;;;;;;22.72;nan;101402.56;5067960;28;20454;-90
2023/10/03 02:20:25;;;;;;;;;;;;;;;22.70;nan;101405.59;5064517;28;19920;-89
2023/10/03 02:22:54;;;;;;;;;;;;;;;22.68;nan;101388.72;5062250;28;19920;-89
2023/10/03 02:25:37;;;;;;;;;;;;;;;22.66;nan;101392.91;5066960;28;19983;-90
2023/10/03 02:28:05;;;;;;;;;;;;;;;22.61;nan;101383.69;5066995;28;19921;-90
2023/10/03 02:30:30;;;;;;;;;;;;;;;22.58;nan;101373.41;5064922;28;19920;-90
2023/10/03 02:32:57;;;;;;;;;;;;;;;22.54;nan;101368.88;5066893;28;19925;-90
2023/10/03 02:35:23;;;;;;;;;;;;;;;22.50;nan;101365.97;5065871;28;19920;-89
2023/10/03 02:37:49;;;;;;;;;;;;;;;22.45;nan;101357.94;5065116;28;19985;-90
2023/10/03 02:40:15;;;;;;;;;;;;;;;22.42;nan;101355.00;5063677;28;20091;-91
2023/10/03 02:42:40;;;;;;;;;;;;;;;22.40;nan;101349.03;5067348;28;19927;-90
2023/10/03 02:45:08;;;;;;;;;;;;;;;22.39;nan;101347.44;5067031;28;20390;-90
2023/10/03 02:47:36;;;;;;;;;;;;;;;22.39;nan;101341.97;5065845;28;20311;-89
2023/10/03 02:50:01;;;;;;;;;;;;;;;22.37;nan;101333.28;5066657;28;20452;-90
2023/10/03 02:52:27;;;;;;;;;;;;;;;22.38;nan;101329.44;5065959;28;19932;-89
2023/10/03 02:54:52;;;;;;;;;;;;;;;22.41;nan;101321.44;5066455;28;20055;-90
2023/10/03 02:57:18;;;;;;;;;;;;;;;22.44;nan;101311.81;5068208;28;20352;-90
2023/10/03 02:59:44;;;;;;;;;;;;;;;22.46;nan;101312.31;5069664;28;19921;-89
2023/10/03 03:02:13;;;;;;;;;;;;;;;22.47;nan;101301.06;5064849;28;20300;-90
2023/10/03 03:04:41;;;;;;;;;;;;;;;22.45;nan;101297.88;5069820;28;19920;-90
2023/10/03 03:07:06;;;;;;;;;;;;;;;22.44;nan;101293.53;5071353;28;19920;-90
2023/10/03 03:09:36;;;;;;;;;;;;;;;22.43;nan;101286.41;5067613;28;19928;-90
2023/10/03 03:12:06;;;;;;;;;;;;;;;22.43;nan;101280.16;5066519;28;19916;-89
2023/10/03 03:14:31;;;;;;;;;;;;;;;22.43;nan;101270.03;5066385;28;19949;-90
2023/10/03 03:16:56;;;;;;;;;;;;;;;22.45;nan;101269.75;5069392;28;19924;-90
2023/10/03 03:19:23;;;;;;;;;;;;;;;22.46;nan;101274.91;5067724;28;20371;-90
2023/10/03 03:21:50;;;;;;;;;;;;;;;22.49;nan;101270.72;5068368;28;19921;-90
2023/10/03 03:24:33;;;;;;;;;;;;;;;22.52;nan;101262.69;5070195;28;20091;-90
2023/10/03 03:26:58;;;;;;;;;;;;;;;22.53;nan;101253.38;5065296;28;19959;-90
2023/10/03 03:29:35;;;;;;;;;;;;;;;22.54;nan;101249.53;5067904;28;20536;-90
2023/10/03 03:32:00;;;;;;;;;;;;;;;22.54;nan;101240.53;5067105;28;20079;-90
2023/10/03 03:34:25;;;;;;;;;;;;;;;22.53;nan;101239.72;5066622;28;20072;-90
2023/10/03 03:36:54;;;;;;;;;;;;;;;22.56;nan;101235.56;5068030;28;19923;-89
2023/10/03 03:39:20;;;;;;;;;;;;;;;22.58;nan;101236.84;5070045;28;21509;-90
2023/10/03 03:41:46;;;;;;;;;;;;;;;22.59;nan;101224.81;5064016;28;19928;-90
2023/10/03 03:44:12;;;;;;;;;;;;;;;22.59;nan;101219.34;5067344;28;20132;-90
2023/10/03 03:46:40;;;;;;;;;;;;;;;22.61;nan;101219.03;5067473;28;20398;-90
2023/10/03 03:49:10;;;;;;;;;;;;;;;22.63;nan;101213.28;5063992;28;19928;-89
2023/10/03 03:51:35;;;;;;;;;;;;;;;22.62;nan;101209.72;5068114;28;19973;-90
2023/10/03 03:54:01;;;;;;;;;;;;;;;22.63;nan;101207.81;5066966;28;19916;-89
2023/10/03 03:56:26;;;;;;;;;;;;;;;22.65;nan;101202.81;5067061;28;20011;-89
2023/10/03 03:58:51;;;;;;;;;;;;;;;22.67;nan;101201.38;5068298;28;19920;-90
2023/10/03 04:01:20;;;;;;;;;;;;;;;22.69;nan;101196.41;5067835;28;20347;-90
2023/10/03 04:03:51;;;;;;;;;;;;;;;22.70;nan;101197.22;5059865;28;19927;-90
2023/10/03 04:06:18;;;;;;;;;;;;;;;22.68;nan;101186.59;5059536;28;19934;-89
2023/10/03 04:08:45;;;;;;;;;;;;;;;22.64;nan;101182.91;5066671;28;19973;-90
2023/10/03 04:11:11;;;;;;;;;;;;;;;22.64;nan;101182.09;5065233;28;19917;-89
2023/10/03 04:13:49;;;;;;;;;;;;;;;22.63;nan;101180.50;5069035;28;19922;-90
2023/10/03 04:16:14;;;;;;;;;;;;;;;22.61;nan;101172.59;5066713;28;19967;-90
2023/10/03 04:18:40;;;;;;;;;;;;;;;22.60;nan;101169.06;5063083;28;19962;-89
2023/10/03 04:21:05;;;;;;;;;;;;;;;22.60;nan;101169.06;5065603;28;19920;-89
2023/10/03 04:23:30;;;;;;;;;;;;;;;22.60;nan;101154.59;5075852;28;20392;-93
2023/10/03 04:25:56;;;;;;;;;;;;;;;22.60;nan;101146.41;5064360;28;20488;-90
2023/10/03 04:28:21;;;;;;;;;;;;;;;22.63;nan;101145.00;5066834;28;19963;-89
2023/10/03 04:30:49;;;;;;;;;;;;;;;22.64;nan;101141.13;5067559;28;19924;-90
2023/10/03 04:33:20;;;;;;;;;;;;;;;22.63;nan;101145.00;5064093;28;20010;-90
2023/10/03 04:35:46;;;;;;;;;;;;;;;22.61;nan;101132.44;5063344;28;19916;-90
2023/10/03 04:38:14;;;;;;;;;;;;;;;22.59;nan;101134.69;5064325;28;20002;-90
2023/10/03 04:40:40;;;;;;;;;;;;;;;22.60;nan;101130.81;5061232;28;19916;-90
2023/10/03 04:43:11;;;;;;;;;;;;;;;22.60;nan;101125.38;5066736;28;19947;-90
2023/10/03 04:45:36;;;;;;;;;;;;;;;22.60;nan;101124.56;5069933;28;19927;-89
2023/10/03 04:48:02;;;;;;;;;;;;;;;22.60;nan;101124.56;5067635;28;19921;-90
2023/10/03 04:50:28;;;;;;;;;;;;;;;22.60;nan;101119.09;5068462;28;20059;-90
2023/10/03 04:52:53;;;;;;;;;;;;;;;22.59;nan;101123.75;5066249;28;19968;-90
2023/10/03 04:55:19;;;;;;;;;;;;;;;22.56;nan;101124.41;5067418;28;19924;-90
2023/10/03 04:57:46;;;;;;;;;;;;;;;22.52;nan;101109.78;5061314;28;19920;-90
2023/10/03 05:00:15;;;;;;;;;;;;;;;22.48;nan;101114.28;5068364;28;19917;-89
2023/10/03 05:02:42;;;;;;;;;;;;;;;22.43;nan;101099.97;5064609;28;19936;-90
2023/10/03 05:05:08;;;;;;;;;;;;;;;22.37;nan;101088.41;5066793;28;20007;-89
2023/10/03 05:07:33;;;;;;;;;;;;;;;22.38;nan;101095.47;5064641;28;19985;-89
2023/10/03 05:09:58;;;;;;;;;;;;;;;22.43;nan;101091.78;5064681;28;19921;-90
2023/10/03 05:12:24;;;;;;;;;;;;;;;22.43;nan;101091.78;5069044;28;20077;-90
2023/10/03 05:14:51;;;;;;;;;;;;;;;22.43;nan;101089.84;5065515;28;20287;-89
2023/10/03 05:17:17;;;;;;;;;;;;;;;22.41;nan;101092.09;5064647;28;19923;-90
2023/10/03 05:19:42;;;;;;;;;;;;;;;22.39;nan;101086.16;5063079;28;20758;-89
2023/10/03 05:22:08;;;;;;;;;;;;;;;22.38;nan;101081.00;5076294;28;19920;-91
2023/10/03 05:24:34;;;;;;;;;;;;;;;22.39;nan;101080.69;5064114;28;19920;-90
2023/10/03 05:27:00;;;;;;;;;;;;;;;22.41;nan;101077.63;5062939;28;19924;-90
2023/10/03 05:29:26;;;;;;;;;;;;;;;22.40;nan;101070.56;5063338;28;19992;-90
2023/10/03 05:31:51;;;;;;;;;;;;;;;22.42;nan;101063.66;5062144;28;19920;-88
2023/10/03 05:34:20;;;;;;;;;;;;;;;22.45;nan;101056.78;5065035;28;19924;-90
2023/10/03 05:36:45;;;;;;;;;;;;;;;22.49;nan;101047.63;5062939;28;20781;-90
2023/10/03 05:39:11;;;;;;;;;;;;;;;22.55;nan;101046.34;5063451;28;20047;-90
2023/10/03 05:41:40;;;;;;;;;;;;;;;22.61;nan;101045.03;5061639;28;19920;-89
2023/10/03 05:44:11;;;;;;;;;;;;;;;22.68;nan;101038.31;5079117;28;19920;-89
2023/10/03 05:46:37;;;;;;;;;;;;;;;22.72;nan;101034.59;5066156;28;19986;-89
2023/10/03 05:49:03;;;;;;;;;;;;;;;22.78;nan;101033.31;5063430;28;20399;-90
2023/10/03 05:51:29;;;;;;;;;;;;;;;22.83;nan;101035.13;5063918;28;19928;-88
2023/10/03 05:53:54;;;;;;;;;;;;;;;22.84;nan;101029.34;5062461;28;19920;-88
2023/10/03 05:56:19;;;;;;;;;;;;;;;22.88;nan;101018.56;5064915;28;20114;-90
2023/10/03 05:58:45;;;;;;;;;;;;;;;22.91;nan;101023.38;5066115;28;20369;-89
2023/10/03 06:01:12;;;;;;;;;;;;;;;22.92;nan;101017.56;5065155;28;19920;-88
2023/10/03 06:03:37;;;;;;;;;;;;;;;22.89;nan;101011.97;5067695;28;19916;-89
2023/10/03 06:06:03;;;;;;;;;;;;;;;22.94;nan;101009.03;5066942;28;20354;-89
2023/10/03 06:08:32;;;;;;;;;;;;;;;23.02;nan;101015.63;5061820;28;19920;-90
2023/10/03 06:10:59;;;;;;;;;;;;;;;23.06;nan;101001.00;5063569;28;19920;-89
2023/10/03 06:13:25;;;;;;;;;;;;;;;23.07;nan;100994.41;5076333;28;20015;-90
2023/10/03 06:15:50;;;;;;;;;;;;;;;23.10;nan;100985.53;5066407;28;20582;-89
2023/10/03 06:18:16;;;;;;;;;;;;;;;23.15;nan;100979.09;5066119;28;20339;-90
2023/10/03 06:20:41;;;;;;;;;;;;;;;23.20;nan;100982.47;5065921;28;19963;-90
2023/10/03 06:23:08;;;;;;;;;;;;;;;23.28;nan;100985.47;5061636;28;19959;-90
2023/10/03 06:25:33;;;;;;;;;;;;;;;23.27;nan;100989.34;5061726;28;19916;-89
2023/10/03 06:27:59;;;;;;;;;;;;;;;23.27;nan;100987.41;5066634;28;19920;-89
2023/10/03 06:30:24;;;;;;;;;;;;;;;23.25;nan;100981.47;5065640;28;20068;-90
2023/10/03 06:32:49;;;;;;;;;;;;;;;23.28;nan;100974.53;5067433;28;20305;-89
2023/10/03 06:35:15;;;;;;;;;;;;;;;23.30;nan;100967.63;5068520;28;19916;-90
2023/10/03 06:37:41;;;;;;;;;;;;;;;23.35;nan;100977.59;5066730;28;19920;-90
2023/10/03 06:40:07;;;;;;;;;;;;;;;23.36;nan;100974.53;5064964;28;19927;-89
2023/10/03 06:42:35;;;;;;;;;;;;;;;23.40;nan;100964.53;5065083;28;19932;-89
2023/10/03 06:45:01;;;;;;;;;;;;;;;23.43;nan;100969.34;5060816;28;19942;-85
2023/10/03 06:47:26;;;;;;;;;;;;;;;23.46;nan;100963.19;5067501;28;20032;-87
2023/10/03 06:49:52;;;;;;;;;;;;;;;23.49;nan;100959.81;5066075;28;19921;-89
2023/10/03 06:52:17;;;;;;;;;;;;;;;23.55;nan;100949.50;5061893;28;19924;-89
2023/10/03 06:54:43;;;;;;;;;;;;;;;23.60;nan;100938.38;5064751;28;19924;-89
2023/10/03 06:57:10;;;;;;;;;;;;;;;23.64;nan;100931.13;5065570;28;19982;-90
2023/10/03 06:59:35;;;;;;;;;;;;;;;23.69;nan;100930.13;5064552;28;19962;-90
2023/10/03 07:02:00;;;;;;;;;;;;;;;23.71;nan;100925.94;5065835;28;19920;-91
2023/10/03 07:04:26;;;;;;;;;;;;;;;23.77;nan;100921.06;5063575;28;19931;-90
2023/10/03 07:06:51;;;;;;;;;;;;;;;23.80;nan;100921.19;5062793;28;19928;-89
2023/10/03 07:09:17;;;;;;;;;;;;;;;23.88;nan;100919.56;5066788;28;19947;-89
2023/10/03 07:11:43;;;;;;;;;;;;;;;23.93;nan;100918.53;5067435;28;19974;-89
2023/10/03 07:14:12;;;;;;;;;;;;;;;24.01;nan;100920.41;5063127;28;20384;-90
2023/10/03 07:16:38;;;;;;;;;;;;;;;24.10;nan;100924.69;5066695;28;19923;-89
2023/10/03 07:19:04;;;;;;;;;;;;;;;24.15;nan;100920.94;5067136;28;19920;-89
2023/10/03 07:21:29;;;;;;;;;;;;;;;24.23;nan;100922.78;5063135;28;20198;-88
2023/10/03 07:23:56;;;;;;;;;;;;;;;24.35;nan;100928.34;5067280;28;20392;-88
2023/10/03 07:26:21;;;;;;;;;;;;;;;24.51;nan;100938.66;5080598;28;19943;-88
2023/10/03 07:28:47;;;;;;;;;;;;;;;24.68;nan;100930.28;5067585;28;19920;-91
2023/10/03 07:31:13;;;;;;;;;;;;;;;24.84;nan;100931.22;5064545;28;19920;-89
2023/10/03 07:33:44;;;;;;;;;;;;;;;25.03;nan;100940.88;5067456;28;20486;-89
2023/10/03 07:36:10;;;;;;;;;;;;;;;25.18;nan;100937.47;5062847;28;19927;-92
2023/10/03 07:38:35;;;;;;;;;;;;;;;25.23;nan;100942.72;5063959;28;19921;-89
2023/10/03 07:41:05;;;;;;;;;;;;;;;25.32;nan;100935.19;5079667;28;19935;-88
2023/10/03 07:43:30;;;;;;;;;;;;;;;25.38;nan;100928.34;5067435;28;19935;-89
2023/10/03 07:45:55;;;;;;;;;;;;;;;25.43;nan;100917.13;5060919;28;19928;-87
2023/10/03 07:48:21;;;;;;;;;;;;;;;25.51;nan;100904.44;5064785;28;19920;-94
2023/10/03 07:50:47;;;;;;;;;;;;;;;25.56;nan;100877.56;5065221;28;20273;-92
2023/10/03 07:53:12;;;;;;;;;;;;;;;25.67;nan;100871.59;5068542;28;19920;-90
2023/10/03 07:55:41;;;;;;;;;;;;;;;25.72;nan;100868.66;5065560;28;20430;-90
2023/10/03 07:58:06;;;;;;;;;;;;;;;25.76;nan;100867.59;5065042;28;19916;-88
2023/10/03 08:00:32;;;;;;;;;;;;;;;25.80;nan;100867.69;5078859;28;20379;-89
2023/10/03 08:02:58;;;;;;;;;;;;;;;25.88;nan;100875.00;5079574;28;20007;-90
2023/10/03 08:05:30;;;;;;;;;;;;;;;26.00;nan;100882.38;5063928;28;19920;-89
2023/10/03 08:07:56;;;;;;;;;;;;;;;26.05;nan;100874.72;5064168;28;20363;-90
2023/10/03 08:10:21;;;;;;;;;;;;;;;26.15;nan;100865.16;5067646;28;19974;-90
2023/10/03 08:12:50;;;;;;;;;;;;;;;26.29;nan;100851.81;5061438;28;19976;-94
2023/10/03 08:15:18;;;;;;;;;;;;;;;26.35;nan;100842.19;5070565;28;19928;-96
2023/10/03 08:17:44;;;;;;;;;;;;;;;26.41;nan;100840.81;5064477;28;19927;-88
2023/10/03 08:20:14;;;;;;;;;;;;;;;26.45;nan;100849.13;5063696;28;19920;-90
2023/10/03 08:22:41;;;;;;;;;;;;;;;26.48;nan;100851.97;5066047;28;19921;-94
2023/10/03 08:25:07;;;;;;;;;;;;;;;26.50;nan;100863.41;5067703;28;19988;-90
2023/10/03 08:27:32;;;;;;;;;;;;;;;26.55;nan;100850.53;5065043;28;19990;-93
2023/10/03 08:30:00;;;;;;;;;;;;;;;26.56;nan;100865.88;5069712;28;19927;-91
2023/10/03 08:32:26;;;;;;;;;;;;;;;26.67;nan;100847.72;5068595;28;19927;-91
2023/10/03 08:34:52;;;;;;;;;;;;;;;26.68;nan;100857.56;5072574;28;19916;-92
2023/10/03 08:37:24;;;;;;;;;;;;;;;26.76;nan;100845.63;5065929;28;19924;-90
2023/10/03 08:39:50;;;;;;;;;;;;;;;26.84;nan;100850.13;5067839;28;19959;-87
2023/10/03 08:42:17;;;;;;;;;;;;;;;26.97;nan;100864.56;5065159;28;19959;-89
2023/10/03 08:44:52;;;;;;;;;;;;;;;27.03;nan;100866.72;5066544;28;19928;-92
2023/10/03 08:47:22;;;;;;;;;;;;;;;27.01;nan;100847.03;5065628;28;20088;-90
2023/10/03 08:49:56;;;;;;;;;;;;;;;27.10;nan;100838.56;5064872;28;20435;-93
2023/10/03 08:52:24;;;;;;;;;;;;;;;27.19;nan;100830.16;5067209;28;19931;-91
2023/10/03 08:54:54;;;;;;;;;;;;;;;27.26;nan;100830.28;5069113;28;19920;-90
2023/10/03 08:57:23;;;;;;;;;;;;;;;27.28;nan;100831.53;5070180;28;20198;-93
2023/10/03 08:59:48;;;;;;;;;;;;;;;27.32;nan;100806.88;5069208;28;19960;-90
2023/10/03 09:02:14;;;;;;;;;;;;;;;27.37;nan;100826.63;5062547;28;19967;-91
2023/10/03 09:04:40;;;;;;;;;;;;;;;27.39;nan;100813.31;5067469;28;19920;-94
2023/10/03 09:07:11;;;;;;;;;;;;;;;27.44;nan;100806.72;5068178;28;20070;-93
2023/10/03 09:09:41;;;;;;;;;;;;;;;27.52;nan;100796.69;5072174;28;19948;-91
2023/10/03 09:12:08;;;;;;;;;;;;;;;27.64;nan;100799.31;5070341;28;19960;-90
2023/10/03 09:14:36;;;;;;;;;;;;;;;27.83;nan;100796.56;5065560;28;20379;-93
2023/10/03 09:17:03;;;;;;;;;;;;;;;28.01;nan;100791.41;5065322;28;19967;-93
2023/10/03 09:19:50;;;;;;;;;;;;;;;28.18;nan;100790.91;5066059;28;19920;-94
2023/10/03 09:22:31;;;;;;;;;;;;;;;28.32;nan;100795.91;5062385;28;19920;-93
2023/10/03 09:24:56;;;;;;;;;;;;;;;28.44;nan;100792.97;5067754;28;19920;-95
2023/10/03 09:27:29;;;;;;;;;;;;;;;28.46;nan;100785.13;5061367;28;20395;-90
2023/10/03 09:29:58;;;;;;;;;;;;;;;28.51;nan;100792.28;5062932;28;19924;-91
2023/10/03 09:32:24;;;;;;;;;;;;;;;28.57;nan;100777.06;5073053;28;19920;-91
2023/10/03 09:34:56;;;;;;;;;;;;;;;28.58;nan;100779.44;5071825;28;20205;-92
2023/10/03 09:37:30;;;;;;;;;;;;;;;28.63;nan;100758.22;5062503;28;20379;-89
2023/10/03 09:40:00;;;;;;;;;;;;;;;28.72;nan;100761.50;5055304;28;19928;-91
2023/10/03 09:42:25;;;;;;;;;;;;;;;28.85;nan;100757.38;5063406;28;19927;-89
2023/10/03 09:44:57;;;;;;;;;;;;;;;28.97;nan;100751.69;5068001;28;19917;-93
2023/10/03 09:47:30;;;;;;;;;;;;;;;29.08;nan;100760.09;5066780;28;19924;-94
2023/10/03 09:50:03;;;;;;;;;;;;;;;29.22;nan;100784.31;5063744;28;19916;-93
2023/10/03 09:52:30;;;;;;;;;;;;;;;29.44;nan;100777.91;5063246;28;19946;-92
2023/10/03 09:54:59;;;;;;;;;;;;;;;29.50;nan;100776.47;5083447;28;19927;-94
2023/10/03 09:57:28;;;;;;;;;;;;;;;29.65;nan;100780.97;5067790;28;19928;-89
2023/10/03 09:59:55;;;;;;;;;;;;;;;29.81;nan;100775.25;5066953;28;19924;-90
2023/10/03 10:02:30;;;;;;;;;;;;;;;29.98;nan;100776.59;5063253;28;19916;-90
2023/10/03 10:04:59;;;;;;;;;;;;;;;30.22;nan;100776.09;5064127;28;19924;-90
2023/10/03 10:07:51;;;;;;;;;;;;;;;30.43;nan;100778.22;5065601;28;19928;-91
2023/10/03 10:10:19;;;;;;;;;;;;;;;30.63;nan;100781.56;5078912;28;19920;-91
2023/10/03 10:13:04;;;;;;;;;;;;;;;30.81;nan;100782.50;5071675;28;19965;-89
2023/10/03 10:15:31;;;;;;;;;;;;;;;30.98;nan;100781.03;5072005;28;19917;-90
2023/10/03 10:17:57;;;;;;;;;;;;;;;31.03;nan;100760.50;5075649;28;19970;-95
2023/10/03 10:20:32;;;;;;;;;;;;;;;31.00;nan;100767.59;5077047;28;19916;-95
2023/10/03 10:23:02;;;;;;;;;;;;;;;30.95;nan;100766.00;5083938;28;19969;-89
2023/10/03 10:25:28;;;;;;;;;;;;;;;30.89;nan;100762.03;5073489;28;19955;-89
2023/10/03 10:28:01;;;;;;;;;;;;;;;30.93;nan;100770.34;5074620;28;19933;-92
2023/10/03 10:30:26;;;;;;;;;;;;;;;30.97;nan;100760.06;5067147;28;20022;-90
2023/10/03 10:33:11;;;;;;;;;;;;;;;30.96;nan;100773.13;5063760;28;21051;-90
2023/10/03 10:35:55;;;;;;;;;;;;;;;30.97;nan;100758.09;5063110;28;20388;-90
2023/10/03 10:38:21;;;;;;;;;;;;;;;31.16;nan;100761.75;5064554;28;19920;-91
2023/10/03 10:41:06;;;;;;;;;;;;;;;31.28;nan;100747.63;5064367;28;19925;-92
2023/10/03 10:43:34;;;;;;;;;;;;;;;31.42;nan;100738.56;5061541;28;19921;-93
2023/10/03 10:46:18;;;;;;;;;;;;;;;31.45;nan;100749.66;5065132;28;19977;-92
2023/10/03 10:48:46;;;;;;;;;;;;;;;31.57;nan;100756.81;5075374;28;20103;-96
2023/10/03 10:51:12;;;;;;;;;;;;;;;31.75;nan;100774.31;5069505;28;19970;-96
2023/10/03 10:53:43;;;;;;;;;;;;;;;31.93;nan;100774.34;5070119;28;20545;-93
2023/10/03 10:56:12;;;;;;;;;;;;;;;32.08;nan;100753.78;5065210;28;19942;-90
2023/10/03 10:58:50;;;;;;;;;;;;;;;32.27;nan;100732.44;5065896;28;20344;-91
2023/10/03 11:01:19;;;;;;;;;;;;;;;32.46;nan;100716.19;5066976;28;20169;-87
2023/10/03 11:03:45;;;;;;;;;;;;;;;32.55;nan;100737.19;5064635;28;19924;-89
2023/10/03 11:06:14;;;;;;;;;;;;;;;32.64;nan;100745.88;5067224;28;19931;-89
2023/10/03 11:08:43;;;;;;;;;;;;;;;32.53;nan;100732.06;5066516;28;19956;-93
2023/10/03 11:11:08;;;;;;;;;;;;;;;32.56;nan;100736.81;5068541;28;19924;-91
2023/10/03 11:13:43;;;;;;;;;;;;;;;32.47;nan;100736.41;5075313;28;19974;-96
2023/10/03 11:16:08;;;;;;;;;;;;;;;32.31;nan;100733.22;5070682;28;19924;-96
2023/10/03 11:18:35;;;;;;;;;;;;;;;32.27;nan;100726.91;5074972;28;19916;-94
2023/10/03 11:21:04;;;;;;;;;;;;;;;32.29;nan;100721.75;5071654;28;19924;-92
2023/10/03 11:23:29;;;;;;;;;;;;;;;32.24;nan;100719.34;5070074;28;20306;-89
2023/10/03 11:25:59;;;;;;;;;;;;;;;32.19;nan;100717.78;5068323;28;19942;-91
2023/10/03 11:28:25;;;;;;;;;;;;;;;32.16;nan;100711.06;5081833;28;19920;-89
2023/10/03 11:31:01;;;;;;;;;;;;;;;32.07;nan;100715.38;5065439;28;20487;-92
2023/10/03 11:33:27;;;;;;;;;;;;;;;32.00;nan;100721.72;5082170;28;19951;-88
2023/10/03 11:35:53;;;;;;;;;;;;;;;31.92;nan;100722.91;5068198;28;20333;-89
2023/10/03 11:38:18;;;;;;;;;;;;;;;31.92;nan;100703.50;5073045;28;19932;-89
2023/10/03 11:40:44;;;;;;;;;;;;;;;31.99;nan;100711.03;5074856;28;19943;-93
2023/10/03 11:43:10;;;;;;;;;;;;;;;31.95;nan;100713.78;5083226;28;19916;-96
2023/10/03 11:45:36;;;;;;;;;;;;;;;32.10;nan;100695.97;5078224;28;19946;-88
2023/10/03 11:48:07;;;;;;;;;;;;;;;32.19;nan;100684.53;5072634;28;19927;-93
2023/10/03 11:50:40;;;;;;;;;;;;;;;32.29;nan;100702.34;5068360;28;21120;-89
2023/10/03 11:53:08;;;;;;;;;;;;;;;32.31;nan;100692.44;5071762;28;20007;-91
2023/10/03 11:55:36;;;;;;;;;;;;;;;32.22;nan;100697.56;5076089;28;19965;-94
2023/10/03 11:58:01;;;;;;;;;;;;;;;32.21;nan;100697.97;5066534;28;19928;-93
2023/10/03 12:00:28;;;;;;;;;;;;;;;32.20;nan;100718.56;5069275;28;19950;-93
2023/10/03 12:02:53;;;;;;;;;;;;;;;32.17;nan;100717.38;5071045;28;19926;-96
2023/10/03 12:05:22;;;;;;;;;;;;;;;32.12;nan;100726.88;5068232;28;20547;-88
2023/10/03 12:07:49;;;;;;;;;;;;;;;32.05;nan;100715.00;5071349;28;19951;-90
2023/10/03 12:10:15;;;;;;;;;;;;;;;32.07;nan;100724.50;5068646;28;19964;-94
2023/10/03 12:12:40;;;;;;;;;;;;;;;32.02;nan;100713.03;5068040;28;20399;-92
2023/10/03 12:15:12;;;;;;;;;;;;;;;32.00;nan;100713.41;5067210;28;19925;-92
2023/10/03 12:17:46;;;;;;;;;;;;;;;31.95;nan;100716.56;5069967;28;19966;-88
2023/10/03 12:20:12;;;;;;;;;;;;;;;31.81;nan;100742.28;5071807;28;20006;-88
2023/10/03 12:22:51;;;;;;;;;;;;;;;31.75;nan;100756.91;5068268;28;19920;-96
2023/10/03 12:25:17;;;;;;;;;;;;;;;31.65;nan;100749.34;5069573;28;19920;-91
2023/10/03 12:27:43;;;;;;;;;;;;;;;31.64;nan;100739.44;5069800;28;19929;-93
2023/10/03 12:30:12;;;;;;;;;;;;;;;31.62;nan;100747.34;5072032;28;20334;-96
2023/10/03 12:32:39;;;;;;;;;;;;;;;31.57;nan;100773.44;5074785;28;20006;-95
2023/10/03 12:35:24;;;;;;;;;;;;;;;31.46;nan;100745.72;5073499;28;20349;-95
2023/10/03 12:37:49;;;;;;;;;;;;;;;31.33;nan;100705.72;5075575;28;19928;-96
2023/10/03 12:40:16;;;;;;;;;;;;;;;31.32;nan;100709.66;5068718;28;19912;-89
2023/10/03 12:42:49;;;;;;;;;;;;;;;31.30;nan;100725.09;5071453;28;19917;-94
2023/10/03 12:45:18;;;;;;;;;;;;;;;31.22;nan;100741.66;5075108;28;19948;-95
2023/10/03 12:47:47;;;;;;;;;;;;;;;31.18;nan;100753.88;5068455;28;19963;-90
2023/10/03 12:50:23;;;;;;;;;;;;;;;31.20;nan;100751.53;5075271;28;19921;-90
2023/10/03 12:52:58;;;;;;;;;;;;;;;31.27;nan;100759.88;5073351;28;19929;-91
2023/10/03 12:55:25;;;;;;;;;;;;;;;31.20;nan;100770.91;5069550;28;19920;-95
2023/10/03 12:57:59;;;;;;;;;;;;;;;31.09;nan;100761.72;5064388;28;19920;-96
2023/10/03 13:00:25;;;;;;;;;;;;;;;31.07;nan;100766.88;5069078;28;19920;-96